Time;durP1;ratioP1;P1;durP2;ratioP2;P2;SDS_P1;SDS_P2;PMS_P1;PMS_P2;Temp;Humidity;BMP_temperature;BMP_pressure;BME280_temperature;BME280_humidity;BME280_pressure;Samples;Min_cycle;Max_cycle;Signal;HPM_P1;HPM_P2
2021/06/13 00:03:50;;;;;;;11.70;9.20;;;;;12.30;102170.00;;;;10507317;28;20213;-78
2021/06/13 00:08:52;;;;;;;11.90;7.87;;;;;12.30;102161.00;;;;10474188;28;20196;-79
2021/06/13 00:13:54;;;;;;;11.33;7.87;;;;;12.20;102168.00;;;;10490821;28;20250;-79
2021/06/13 00:18:56;;;;;;;12.70;8.57;;;;;12.10;102167.00;;;;10463765;28;20201;-79
2021/06/13 00:23:58;;;;;;;13.30;8.00;;;;;12.00;102168.00;;;;10469315;28;20209;-79
2021/06/13 00:29:00;;;;;;;14.57;8.13;;;;;12.00;102175.00;;;;10507116;28;20197;-78
2021/06/13 00:34:02;;;;;;;12.93;8.10;;;;;11.90;102175.00;;;;10482243;28;20240;-78
2021/06/13 00:39:05;;;;;;;12.57;8.40;;;;;11.90;102166.00;;;;10481853;28;20212;-78
2021/06/13 00:44:07;;;;;;;10.70;7.97;;;;;11.80;102162.00;;;;10482209;28;20695;-79
2021/06/13 00:49:09;;;;;;;14.30;8.57;;;;;11.70;102173.00;;;;10482048;28;20200;-78
2021/06/13 00:54:14;;;;;;;12.37;8.33;;;;;11.70;102171.00;;;;10475632;28;20204;-79
2021/06/13 00:59:17;;;;;;;12.77;8.63;;;;;11.70;102168.00;;;;10456536;28;20201;-79
2021/06/13 01:04:19;;;;;;;11.70;8.33;;;;;11.70;102168.00;;;;10473128;28;20301;-79
2021/06/13 01:09:30;;;;;;;12.67;7.87;;;;;11.60;102169.00;;;;10505973;28;20197;-78
2021/06/13 01:14:57;;;;;;;11.03;7.90;;;;;11.60;102158.00;;;;10489980;28;20190;-78
2021/06/13 01:20:08;;;;;;;11.17;8.13;;;;;11.50;102166.00;;;;10472410;28;20190;-79
2021/06/13 01:25:38;;;;;;;10.70;8.67;;;;;11.40;102161.00;;;;10484751;28;20288;-79
2021/06/13 01:30:41;;;;;;;13.17;7.90;;;;;11.30;102159.00;;;;10513695;28;20254;-79
2021/06/13 01:35:46;;;;;;;12.87;8.87;;;;;11.20;102158.00;;;;10497162;28;20250;-79
2021/06/13 01:40:49;;;;;;;11.90;9.40;;;;;11.20;102148.00;;;;10496462;28;20193;-79
2021/06/13 01:45:54;;;;;;;18.73;10.30;;;;;11.10;102148.00;;;;10496340;28;20246;-78
2021/06/13 01:51:00;;;;;;;17.10;9.47;;;;;11.00;102143.00;;;;10512413;28;20185;-78
2021/06/13 01:56:03;;;;;;;13.93;10.10;;;;;11.00;102142.00;;;;10495973;28;20231;-78
2021/06/13 02:01:09;;;;;;;14.17;10.37;;;;;11.00;102132.00;;;;10499959;28;20198;-79
2021/06/13 02:06:13;;;;;;;14.70;10.83;;;;;11.00;102136.00;;;;10470283;28;20251;-78
2021/06/13 02:11:17;;;;;;;15.87;10.33;;;;;11.00;102137.00;;;;10437008;28;20209;-78
2021/06/13 02:16:21;;;;;;;13.33;9.03;;;;;11.00;102141.00;;;;10453266;28;20232;-79
2021/06/13 02:21:31;;;;;;;14.37;10.40;;;;;10.90;102133.00;;;;10471036;28;20201;-80
2021/06/13 02:26:33;;;;;;;12.63;10.63;;;;;10.80;102134.00;;;;10478879;28;20204;-78
2021/06/13 02:31:40;;;;;;;16.90;10.13;;;;;10.80;102142.00;;;;10477849;28;20256;-79
2021/06/13 02:36:43;;;;;;;15.03;9.63;;;;;10.70;102133.00;;;;10493806;28;20648;-78
2021/06/13 02:41:50;;;;;;;18.50;10.03;;;;;10.60;102149.00;;;;10477791;28;20209;-78
2021/06/13 02:46:52;;;;;;;17.27;10.60;;;;;10.60;102153.00;;;;10494286;28;20231;-78
2021/06/13 02:52:13;;;;;;;20.23;10.47;;;;;10.60;102164.00;;;;10476582;28;20236;-79
2021/06/13 02:57:31;;;;;;;16.67;10.80;;;;;10.50;102161.00;;;;10492927;28;20243;-79
2021/06/13 03:02:36;;;;;;;14.53;10.80;;;;;10.50;102165.00;;;;10509693;28;20189;-78
2021/06/13 03:07:39;;;;;;;13.93;10.43;;;;;10.50;102149.00;;;;10493936;28;20201;-78
2021/06/13 03:12:42;;;;;;;13.80;10.50;;;;;10.40;102144.00;;;;10493512;28;20221;-78
2021/06/13 03:17:47;;;;;;;16.67;11.27;;;;;10.40;102154.00;;;;10493741;28;20560;-79
2021/06/13 03:22:51;;;;;;;18.37;11.90;;;;;10.40;102151.00;;;;10509565;28;20196;-79
2021/06/13 03:27:56;;;;;;;21.33;12.17;;;;;10.30;102165.00;;;;10455495;28;20197;-79
2021/06/13 03:33:00;;;;;;;16.83;12.30;;;;;10.30;102163.00;;;;10496830;28;20208;-79
2021/06/13 03:38:06;;;;;;;18.77;11.57;;;;;10.30;102164.00;;;;10492216;28;20205;-79
2021/06/13 03:43:11;;;;;;;14.80;11.57;;;;;10.30;102169.00;;;;10497055;28;20304;-79
2021/06/13 03:48:15;;;;;;;17.20;11.63;;;;;10.30;102186.00;;;;10483165;28;20856;-79
2021/06/13 03:53:20;;;;;;;15.10;11.83;;;;;10.40;102184.00;;;;10450576;28;20568;-79
2021/06/13 03:58:26;;;;;;;13.00;11.37;;;;;10.50;102182.00;;;;10507232;28;20208;-79
2021/06/13 04:03:30;;;;;;;16.60;12.40;;;;;10.70;102195.00;;;;10467646;28;20201;-79
2021/06/13 04:08:33;;;;;;;18.30;12.40;;;;;10.90;102188.00;;;;10450171;28;20189;-79
2021/06/13 04:13:36;;;;;;;18.63;12.90;;;;;11.30;102201.00;;;;10449400;28;20322;-79
2021/06/13 04:18:40;;;;;;;18.87;12.27;;;;;11.70;102197.00;;;;10490273;28;20197;-79
2021/06/13 04:23:45;;;;;;;15.53;10.27;;;;;11.80;102200.00;;;;10490705;28;20185;-79
2021/06/13 04:28:51;;;;;;;14.80;9.63;;;;;11.80;102205.00;;;;10507168;28;20616;-79
2021/06/13 04:33:54;;;;;;;13.37;9.10;;;;;11.80;102201.00;;;;10480546;28;20221;-79
2021/06/13 04:38:56;;;;;;;12.87;9.77;;;;;11.80;102198.00;;;;10490428;28;20313;-79
2021/06/13 04:44:01;;;;;;;14.17;9.17;;;;;12.00;102210.00;;;;10474211;28;20184;-79
2021/06/13 04:49:03;;;;;;;18.23;10.30;;;;;12.20;102233.00;;;;10448538;28;20204;-79
2021/06/13 04:54:08;;;;;;;14.87;10.17;;;;;12.50;102232.00;;;;10470447;28;20212;-78
2021/06/13 04:59:10;;;;;;;14.47;10.67;;;;;12.80;102243.00;;;;10506659;28;20197;-80
2021/06/13 05:04:12;;;;;;;13.00;10.17;;;;;13.30;102242.00;;;;10464125;28;20194;-80
2021/06/13 05:09:15;;;;;;;15.30;11.10;;;;;13.80;102247.00;;;;10444855;28;20824;-79
2021/06/13 05:14:16;;;;;;;16.53;10.17;;;;;14.20;102254.00;;;;10465055;28;20586;-80
2021/06/13 05:19:18;;;;;;;13.53;10.13;;;;;14.50;102254.00;;;;10453784;28;20727;-79
2021/06/13 05:24:20;;;;;;;16.53;10.23;;;;;14.80;102265.00;;;;10457782;28;20192;-79
2021/06/13 05:29:22;;;;;;;17.90;9.80;;;;;15.20;102274.00;;;;10472196;28;20202;-79
2021/06/13 05:34:24;;;;;;;15.53;10.63;;;;;15.70;102265.00;;;;10439504;28;20668;-81
2021/06/13 05:39:26;;;;;;;15.03;9.73;;;;;16.10;102275.00;;;;10488366;28;20256;-78
2021/06/13 05:44:28;;;;;;;12.47;9.07;;;;;16.60;102286.00;;;;10496309;28;20196;-79
2021/06/13 05:49:34;;;;;;;12.20;8.27;;;;;17.00;102282.00;;;;10518540;28;20212;-78
2021/06/13 05:54:39;;;;;;;16.03;8.40;;;;;17.20;102303.00;;;;10464150;28;20223;-79
2021/06/13 05:59:41;;;;;;;18.13;7.77;;;;;17.50;102306.00;;;;10471365;28;20213;-78
2021/06/13 06:04:42;;;;;;;15.30;7.53;;;;;18.00;102299.00;;;;10503985;28;20277;-78
2021/06/13 06:09:44;;;;;;;9.70;7.63;;;;;18.30;102306.00;;;;10476104;28;20188;-78
2021/06/13 06:14:46;;;;;;;16.87;7.67;;;;;18.70;102313.00;;;;10490268;28;20212;-78
2021/06/13 06:19:48;;;;;;;12.35;6.55;;;;;19.00;102309.00;;;;10495355;28;20189;-78
2021/06/13 06:24:51;;;;;;;9.98;5.30;;;;;19.20;102306.00;;;;10483326;28;20288;-78
2021/06/13 06:29:53;;;;;;;11.73;5.30;;;;;19.50;102307.00;;;;10469074;28;20291;-78
2021/06/13 06:34:55;;;;;;;12.38;6.05;;;;;19.70;102308.00;;;;10494495;28;20300;-79
2021/06/13 06:39:57;;;;;;;10.68;6.57;;;;;19.80;102310.00;;;;10494622;28;20254;-79
2021/06/13 06:45:00;;;;;;;11.48;6.13;;;;;20.00;102315.00;;;;10494278;28;20189;-79
2021/06/13 06:50:05;;;;;;;9.77;5.95;;;;;20.40;102316.00;;;;10469486;28;20660;-78
2021/06/13 06:55:10;;;;;;;10.43;5.43;;;;;20.60;102311.00;;;;10513926;28;20217;-79
2021/06/13 07:00:14;;;;;;;13.05;5.97;;;;;21.10;102302.00;;;;10526431;28;20272;-79
2021/06/13 07:05:15;;;;;;;11.18;5.55;;;;;21.40;102301.00;;;;10510572;28;20196;-79
2021/06/13 07:10:17;;;;;;;12.15;5.05;;;;;21.90;102293.00;;;;10468183;28;20193;-79
2021/06/13 07:15:19;;;;;;;10.05;5.68;;;;;21.70;102303.00;;;;10468260;28;20216;-78
2021/06/13 07:20:22;;;;;;;9.77;4.60;;;;;21.70;102298.00;;;;10450727;28;20202;-78
2021/06/13 07:25:24;;;;;;;12.10;5.10;;;;;21.90;102302.00;;;;10474320;28;20197;-78
2021/06/13 07:30:26;;;;;;;10.65;4.82;;;;;22.50;102282.00;;;;10449641;28;20204;-78
2021/06/13 07:35:29;;;;;;;11.40;4.78;;;;;23.00;102291.00;;;;10455451;28;20231;-79
2021/06/13 07:40:32;;;;;;;10.18;4.72;;;;;23.10;102302.00;;;;10491168;28;20726;-79
2021/06/13 07:45:34;;;;;;;11.38;5.05;;;;;23.40;102287.00;;;;10474730;28;20184;-79
2021/06/13 07:50:37;;;;;;;9.15;4.70;;;;;23.80;102299.00;;;;10491779;28;20189;-79
2021/06/13 07:55:40;;;;;;;10.63;4.70;;;;;24.00;102294.00;;;;10489231;28;20232;-78
2021/06/13 08:00:42;;;;;;;9.75;4.60;;;;;24.30;102301.00;;;;10484494;28;20212;-79
2021/06/13 08:05:44;;;;;;;10.20;5.07;;;;;24.70;102304.00;;;;10524644;28;20188;-78
2021/06/13 08:10:46;;;;;;;10.15;5.03;;;;;25.00;102305.00;;;;10491184;28;20199;-78
2021/06/13 08:15:48;;;;;;;8.07;4.20;;;;;25.10;102305.00;;;;10482165;28;20575;-79
2021/06/13 08:20:50;;;;;;;7.93;4.75;;;;;25.40;102307.00;;;;10507645;28;20192;-79
2021/06/13 08:25:52;;;;;;;8.68;3.92;;;;;25.60;102307.00;;;;10469743;28;20189;-79
2021/06/13 08:30:54;;;;;;;6.85;3.10;;;;;25.60;102308.00;;;;10468635;28;20201;-79
2021/06/13 08:35:57;;;;;;;7.97;3.90;;;;;25.80;102309.00;;;;10458257;28;20266;-78
2021/06/13 08:40:58;;;;;;;7.80;4.18;;;;;26.30;102303.00;;;;10481691;28;20189;-78
2021/06/13 08:46:03;;;;;;;10.93;4.97;;;;;27.00;102307.00;;;;10481950;28;20540;-79
2021/06/13 08:51:05;;;;;;;11.05;4.65;;;;;26.80;102304.00;;;;10474710;28;20199;-79
2021/06/13 08:56:07;;;;;;;10.98;4.80;;;;;27.20;102293.00;;;;10475223;28;20225;-78
2021/06/13 09:01:12;;;;;;;9.45;4.47;;;;;27.20;102295.00;;;;10493370;28;20205;-78
2021/06/13 09:06:14;;;;;;;8.55;4.07;;;;;27.20;102291.00;;;;10440073;28;20189;-78
2021/06/13 09:11:32;;;;;;;7.60;3.67;;;;;27.60;102296.00;;;;10472676;28;20185;-78
2021/06/13 09:16:38;;;;;;;11.10;4.43;;;;;27.40;102297.00;;;;10472444;28;20210;-77
2021/06/13 09:21:42;;;;;;;7.72;3.63;;;;;27.30;102305.00;;;;10482834;28;20197;-78
2021/06/13 09:26:44;;;;;;;6.65;3.88;;;;;27.60;102309.00;;;;10492082;28;20208;-78
2021/06/13 09:31:48;;;;;;;8.95;3.80;;;;;28.10;102301.00;;;;10501408;28;20296;-78
2021/06/13 09:37:02;;;;;;;7.45;3.78;;;;;28.30;102297.00;;;;10471296;28;20247;-78
2021/06/13 09:42:09;;;;;;;10.23;4.53;;;;;28.00;102295.00;;;;10499046;28;20254;-78
2021/06/13 09:47:10;;;;;;;8.57;4.00;;;;;27.60;102286.00;;;;10523586;28;20201;-78
2021/06/13 09:52:12;;;;;;;5.15;3.50;;;;;27.70;102291.00;;;;10496384;28;20197;-78
2021/06/13 09:57:14;;;;;;;9.80;4.03;;;;;28.10;102292.00;;;;10529817;28;20205;-78
2021/06/13 10:02:29;;;;;;;8.10;3.80;;;;;28.20;102287.00;;;;10453553;28;20255;-78
2021/06/13 10:07:33;;;;;;;8.60;4.53;;;;;28.40;102288.00;;;;10487155;28;20201;-79
2021/06/13 10:12:52;;;;;;;7.80;3.67;;;;;28.50;102296.00;;;;10486799;28;20296;-78
2021/06/13 10:18:08;;;;;;;7.07;3.53;;;;;28.40;102286.00;;;;10498143;28;20193;-79
2021/06/13 10:23:10;;;;;;;6.60;3.58;;;;;28.40;102284.00;;;;10478546;28;20184;-79
2021/06/13 10:28:12;;;;;;;9.25;4.35;;;;;29.00;102283.00;;;;10499264;28;20201;-78
2021/06/13 10:33:14;;;;;;;7.22;3.78;;;;;29.40;102273.00;;;;10469028;28;20214;-79
2021/06/13 10:38:16;;;;;;;6.55;3.60;;;;;29.50;102275.00;;;;10485117;28;20201;-78
2021/06/13 10:43:21;;;;;;;6.80;3.20;;;;;29.50;102273.00;;;;10481532;28;20204;-78
2021/06/13 10:48:35;;;;;;;6.88;3.28;;;;;29.60;102279.00;;;;10493644;28;20197;-79
2021/06/13 10:53:37;;;;;;;9.73;3.75;;;;;29.40;102278.00;;;;10488372;28;20694;-78
2021/06/13 10:58:50;;;;;;;4.28;3.08;;;;;29.40;102261.00;;;;10493209;28;20196;-78
2021/06/13 11:04:06;;;;;;;4.93;3.30;;;;;29.70;102266.00;;;;10497567;28;20214;-79
2021/06/13 11:09:11;;;;;;;6.55;3.00;;;;;29.40;102263.00;;;;10468276;28;20200;-78
2021/06/13 11:14:27;;;;;;;10.93;3.72;;;;;29.70;102249.00;;;;10466792;28;20545;-78
2021/06/13 11:19:34;;;;;;;8.27;3.38;;;;;29.80;102243.00;;;;10482819;28;20197;-78
2021/06/13 11:24:51;;;;;;;6.35;3.10;;;;;29.60;102241.00;;;;10481804;28;20209;-78
2021/06/13 11:29:55;;;;;;;5.03;2.80;;;;;30.00;102235.00;;;;10465414;28;20211;-77
2021/06/13 11:34:58;;;;;;;7.22;3.33;;;;;30.00;102231.00;;;;10449297;28;20692;-77
2021/06/13 11:40:01;;;;;;;5.28;2.85;;;;;30.20;102224.00;;;;10449417;28;20202;-77
2021/06/13 11:45:03;;;;;;;5.85;3.13;;;;;30.50;102222.00;;;;10481959;28;20213;-77
2021/06/13 11:50:07;;;;;;;4.93;3.10;;;;;30.90;102230.00;;;;10481486;28;20201;-77
2021/06/13 11:55:09;;;;;;;7.28;3.10;;;;;30.90;102225.00;;;;10492327;28;20649;-77
2021/06/13 12:00:14;;;;;;;7.05;3.10;;;;;30.70;102221.00;;;;10448189;28;20656;-77
2021/06/13 12:05:16;;;;;;;5.47;2.65;;;;;30.60;102208.00;;;;10464500;28;20205;-77
2021/06/13 12:10:29;;;;;;;6.35;2.83;;;;;30.60;102211.00;;;;10471525;28;20199;-77
2021/06/13 12:15:31;;;;;;;5.70;2.80;;;;;31.00;102210.00;;;;10489592;28;20208;-77
2021/06/13 12:20:33;;;;;;;5.45;3.22;;;;;31.00;102201.00;;;;10472633;28;20291;-77
2021/06/13 12:30:55;;;;;;;6.55;3.10;;;;;31.00;102191.00;;;;10481391;28;20193;-77
2021/06/13 12:35:57;;;;;;;5.95;3.03;;;;;30.80;102185.00;;;;10488592;28;20625;-77
2021/06/13 12:40:59;;;;;;;4.93;2.88;;;;;30.40;102178.00;;;;10489399;28;20713;-78
2021/06/13 12:46:03;;;;;;;6.50;3.38;;;;;30.70;102172.00;;;;10489740;28;20292;-78
2021/06/13 12:51:07;;;;;;;8.43;5.90;;;;;30.80;102171.00;;;;10500933;28;20840;-78
2021/06/13 12:56:12;;;;;;;8.30;3.50;;;;;31.00;102167.00;;;;10509132;28;20197;-78
2021/06/13 13:01:14;;;;;;;3.67;2.63;;;;;30.90;102158.00;;;;10489288;28;20193;-78
2021/06/13 13:06:16;;;;;;;6.47;2.42;;;;;30.60;102158.00;;;;10492667;28;20564;-77
2021/06/13 13:11:28;;;;;;;6.47;2.92;;;;;30.40;102142.00;;;;10448485;28;20222;-78
2021/06/13 13:16:37;;;;;;;5.53;2.63;;;;;30.50;102138.00;;;;10447818;28;20192;-78
2021/06/13 13:21:40;;;;;;;6.32;2.70;;;;;30.50;102127.00;;;;10481114;28;20681;-78
2021/06/13 13:27:07;;;;;;;4.32;2.88;;;;;30.80;102129.00;;;;10496130;28;20282;-78
2021/06/13 13:32:09;;;;;;;3.30;2.60;;;;;31.30;102122.00;;;;10480506;28;20229;-78
2021/06/13 13:37:20;;;;;;;3.85;2.58;;;;;31.80;102126.00;;;;10467224;28;20228;-78
2021/06/13 13:42:22;;;;;;;6.63;2.90;;;;;32.70;102121.00;;;;10508183;28;20204;-78
2021/06/13 13:47:35;;;;;;;5.72;2.75;;;;;33.90;102112.00;;;;10479414;28;20226;-78
2021/06/13 13:52:37;;;;;;;6.60;2.70;;;;;35.30;102111.00;;;;10495935;28;20188;-78
2021/06/13 13:57:47;;;;;;;7.90;2.85;;;;;36.00;102111.00;;;;10506625;28;20667;-78
2021/06/13 14:02:49;;;;;;;5.60;2.83;;;;;36.40;102101.00;;;;10495349;28;20575;-78
2021/06/13 14:07:52;;;;;;;5.97;2.42;;;;;37.10;102100.00;;;;10495487;28;20193;-78
2021/06/13 14:12:54;;;;;;;7.63;2.67;;;;;37.20;102093.00;;;;10477774;28;20853;-77
2021/06/13 14:17:56;;;;;;;4.57;2.45;;;;;37.40;102091.00;;;;10487021;28;20284;-78
2021/06/13 14:22:59;;;;;;;6.22;2.95;;;;;37.70;102086.00;;;;10486915;28;20240;-79
2021/06/13 14:28:03;;;;;;;4.57;2.80;;;;;37.80;102082.00;;;;10502242;28;20195;-78
2021/06/13 14:33:05;;;;;;;5.70;2.78;;;;;38.20;102073.00;;;;10495245;28;20205;-78
2021/06/13 14:38:07;;;;;;;6.53;2.33;;;;;38.60;102068.00;;;;10478241;28;20232;-78
2021/06/13 14:43:09;;;;;;;4.45;2.75;;;;;39.00;102052.00;;;;10510469;28;20247;-78
2021/06/13 14:48:12;;;;;;;4.13;3.08;;;;;39.30;102056.00;;;;10492840;28;20189;-78
2021/06/13 14:53:14;;;;;;;5.30;3.10;;;;;39.20;102052.00;;;;10492819;28;20640;-78
2021/06/13 14:58:16;;;;;;;6.32;3.08;;;;;39.30;102052.00;;;;10484089;28;20201;-78
2021/06/13 15:03:22;;;;;;;7.18;2.80;;;;;39.30;102040.00;;;;10497111;28;20205;-78
2021/06/13 15:08:24;;;;;;;9.60;3.13;;;;;40.20;102036.00;;;;10457376;28;20206;-78
2021/06/13 15:13:26;;;;;;;6.40;2.70;;;;;39.60;102032.00;;;;10483143;28;20573;-78
2021/06/13 15:18:28;;;;;;;4.95;2.50;;;;;39.90;102026.00;;;;10466349;28;20236;-78
2021/06/13 15:23:31;;;;;;;5.53;2.63;;;;;40.20;102017.00;;;;10525068;28;20201;-79
2021/06/13 15:28:33;;;;;;;5.53;2.40;;;;;40.00;102018.00;;;;10467527;28;20193;-79
2021/06/13 15:33:35;;;;;;;4.05;2.63;;;;;40.30;102012.00;;;;10467064;28;20241;-79
2021/06/13 15:38:38;;;;;;;4.80;2.60;;;;;40.70;102010.00;;;;10449681;28;20239;-77
2021/06/13 15:43:41;;;;;;;5.75;2.60;;;;;39.70;102011.00;;;;10488325;28;20232;-79
2021/06/13 15:48:43;;;;;;;7.00;2.85;;;;;37.60;102016.00;;;;10491473;28;20193;-79
2021/06/13 15:53:52;;;;;;;5.00;2.60;;;;;33.20;102014.00;;;;10507357;28;20666;-79
2021/06/13 15:58:55;;;;;;;3.95;2.40;;;;;30.40;102008.00;;;;10507842;28;20284;-79
2021/06/13 16:03:59;;;;;;;3.28;2.28;;;;;29.20;101998.00;;;;10490849;28;20240;-79
2021/06/13 16:09:03;;;;;;;6.97;2.85;;;;;28.80;102000.00;;;;10507954;28;20196;-79
2021/06/13 16:14:04;;;;;;;5.47;2.45;;;;;27.80;101989.00;;;;10471073;28;20197;-79
2021/06/13 16:19:07;;;;;;;8.10;3.13;;;;;27.30;101985.00;;;;10482949;28;20193;-79
2021/06/13 16:24:09;;;;;;;4.55;2.83;;;;;26.70;101985.00;;;;10472324;28;20231;-78
2021/06/13 16:29:10;;;;;;;5.63;2.58;;;;;26.40;101979.00;;;;10503624;28;20208;-79
2021/06/13 16:34:12;;;;;;;6.30;2.67;;;;;26.20;101969.00;;;;10449573;28;20216;-80
2021/06/13 16:39:15;;;;;;;5.30;2.88;;;;;26.10;101976.00;;;;10494487;28;20770;-80
2021/06/13 16:44:16;;;;;;;6.07;3.05;;;;;25.80;101971.00;;;;10498743;28;20614;-81
2021/06/13 16:49:18;;;;;;;4.50;2.45;;;;;25.60;101970.00;;;;10472469;28;20543;-81
2021/06/13 16:54:21;;;;;;;5.75;2.58;;;;;25.50;101968.00;;;;10481817;28;20239;-80
2021/06/13 16:59:23;;;;;;;6.03;2.78;;;;;25.40;101970.00;;;;10510005;28;20196;-80
2021/06/13 17:04:26;;;;;;;7.43;3.03;;;;;25.30;101971.00;;;;10498678;28;20912;-80
2021/06/13 17:09:28;;;;;;;8.30;2.53;;;;;25.20;101965.00;;;;10488489;28;20197;-80
2021/06/13 17:14:30;;;;;;;5.60;3.22;;;;;25.10;101956.00;;;;10492990;28;20527;-80
2021/06/13 17:19:31;;;;;;;6.93;3.33;;;;;25.00;101953.00;;;;10502405;28;20207;-81
2021/06/13 17:24:34;;;;;;;7.03;2.90;;;;;25.00;101943.00;;;;10544432;28;20307;-81
2021/06/13 17:29:37;;;;;;;6.70;2.75;;;;;24.90;101947.00;;;;10494651;28;20185;-80
2021/06/13 17:34:38;;;;;;;6.15;2.75;;;;;24.80;101939.00;;;;10478640;28;20220;-80
2021/06/13 17:39:40;;;;;;;4.20;3.08;;;;;24.80;101942.00;;;;10477886;28;20320;-80
2021/06/13 17:44:43;;;;;;;5.55;2.75;;;;;24.60;101944.00;;;;10504754;28;20213;-80
2021/06/13 17:49:47;;;;;;;6.55;3.25;;;;;24.60;101939.00;;;;10470353;28;20235;-80
2021/06/13 17:54:50;;;;;;;6.40;3.13;;;;;24.50;101937.00;;;;10448597;28;20204;-80
2021/06/13 17:59:52;;;;;;;5.18;2.60;;;;;24.40;101932.00;;;;10494198;28;20587;-80
2021/06/13 18:04:54;;;;;;;6.38;2.72;;;;;24.30;101936.00;;;;10493547;28;20213;-80
2021/06/13 18:09:56;;;;;;;4.75;2.72;;;;;24.20;101927.00;;;;10512261;28;20247;-80
2021/06/13 18:14:59;;;;;;;7.30;2.67;;;;;24.10;101926.00;;;;10510193;28;20193;-80
2021/06/13 18:20:05;;;;;;;7.88;2.63;;;;;24.00;101934.00;;;;10468138;28;20285;-80
2021/06/13 18:25:09;;;;;;;9.43;3.30;;;;;23.80;101932.00;;;;10454695;28;20213;-81
2021/06/13 18:30:11;;;;;;;4.47;2.60;;;;;23.60;101925.00;;;;10485537;28;20197;-81
2021/06/13 18:35:14;;;;;;;6.95;2.80;;;;;23.50;101917.00;;;;10485115;28;20210;-81
2021/06/13 18:40:16;;;;;;;5.60;3.00;;;;;23.40;101903.00;;;;10509754;28;20185;-81
2021/06/13 18:45:18;;;;;;;5.18;3.08;;;;;23.30;101907.00;;;;10493006;28;20213;-81
2021/06/13 18:50:20;;;;;;;5.53;2.90;;;;;23.20;101901.00;;;;10493112;28;20200;-81
2021/06/13 18:55:22;;;;;;;4.50;2.90;;;;;23.00;101898.00;;;;10494914;28;20204;-81
2021/06/13 19:00:25;;;;;;;6.47;2.85;;;;;22.90;101894.00;;;;10487013;28;20194;-81
2021/06/13 19:05:27;;;;;;;6.13;3.25;;;;;22.80;101894.00;;;;10447537;28;20235;-81
2021/06/13 19:10:29;;;;;;;6.97;3.13;;;;;22.90;101896.00;;;;10510186;28;20585;-81
2021/06/13 19:15:31;;;;;;;10.60;3.42;;;;;23.20;101881.00;;;;10483887;28;20189;-81
2021/06/13 19:20:34;;;;;;;5.82;3.53;;;;;25.30;101879.00;;;;10467690;28;20200;-81
2021/06/13 19:25:36;;;;;;;7.20;3.28;;;;;25.00;101889.00;;;;10466792;28;20206;-81
2021/06/13 19:30:38;;;;;;;5.05;2.88;;;;;24.00;101889.00;;;;10492461;28;20208;-81
2021/06/13 19:35:40;;;;;;;7.47;2.88;;;;;23.30;101885.00;;;;10506605;28;20260;-80
2021/06/13 19:40:42;;;;;;;8.20;3.10;;;;;22.60;101892.00;;;;10478719;28;20200;-80
2021/06/13 19:45:45;;;;;;;7.07;2.95;;;;;22.00;101883.00;;;;10494435;28;20209;-80
2021/06/13 19:50:49;;;;;;;7.82;3.20;;;;;21.50;101880.00;;;;10454178;28;20201;-80
2021/06/13 19:55:57;;;;;;;8.70;3.40;;;;;21.00;101874.00;;;;10487014;28;20219;-80
2021/06/13 20:01:00;;;;;;;6.03;3.53;;;;;20.60;101875.00;;;;10469437;28;20690;-80
2021/06/13 20:06:04;;;;;;;8.23;3.22;;;;;20.30;101884.00;;;;10497140;28;20770;-80
2021/06/13 20:11:06;;;;;;;5.60;3.20;;;;;19.90;101871.00;;;;10453303;28;20192;-80
2021/06/13 20:16:09;;;;;;;7.68;3.60;;;;;19.70;101872.00;;;;10507000;28;20195;-79
2021/06/13 20:21:14;;;;;;;9.88;3.72;;;;;19.40;101870.00;;;;10488623;28;20882;-80
2021/06/13 20:26:17;;;;;;;10.40;4.28;;;;;19.20;101872.00;;;;10487839;28;20564;-80
2021/06/13 20:31:22;;;;;;;8.70;3.85;;;;;19.00;101874.00;;;;10450339;28;20671;-79
2021/06/13 20:36:24;;;;;;;7.68;3.92;;;;;18.80;101875.00;;;;10477727;28;20205;-79
2021/06/13 20:41:26;;;;;;;6.78;4.07;;;;;18.60;101864.00;;;;10483294;28;20264;-79
2021/06/13 20:46:29;;;;;;;7.80;4.13;;;;;18.40;101860.00;;;;10488629;28;20216;-80
2021/06/13 20:51:31;;;;;;;8.07;4.10;;;;;18.30;101860.00;;;;10495117;28;20203;-80
2021/06/13 20:56:33;;;;;;;10.63;5.13;;;;;18.10;101857.00;;;;10508760;28;20197;-80
2021/06/13 21:01:36;;;;;;;11.23;4.72;;;;;18.00;101848.00;;;;10474989;28;20204;-80
2021/06/13 21:06:38;;;;;;;10.83;5.67;;;;;17.90;101836.00;;;;10482391;28;20228;-80
2021/06/13 21:11:40;;;;;;;7.75;3.80;;;;;17.80;101838.00;;;;10490336;28;20193;-79
2021/06/13 21:16:42;;;;;;;9.18;3.47;;;;;17.70;101830.00;;;;10488272;28;20189;-79
2021/06/13 21:21:45;;;;;;;8.80;3.90;;;;;17.50;101832.00;;;;10490822;28;20244;-79
2021/06/13 21:26:47;;;;;;;8.30;4.50;;;;;17.40;101837.00;;;;10475487;28;20228;-79
2021/06/13 21:31:49;;;;;;;7.37;3.53;;;;;17.30;101826.00;;;;10475565;28;20224;-78
2021/06/13 21:36:51;;;;;;;10.07;3.93;;;;;17.20;101832.00;;;;10489988;28;20209;-78
2021/06/13 21:41:53;;;;;;;7.63;3.70;;;;;17.00;101836.00;;;;10482679;28;20201;-78
2021/06/13 21:46:55;;;;;;;12.07;4.10;;;;;16.80;101840.00;;;;10550611;28;20201;-79
2021/06/13 21:52:01;;;;;;;10.23;4.10;;;;;16.70;101837.00;;;;10472680;28;20201;-78
2021/06/13 21:57:04;;;;;;;8.33;4.27;;;;;16.60;101844.00;;;;10489614;28;20188;-78
2021/06/13 22:02:06;;;;;;;11.67;4.70;;;;;16.40;101855.00;;;;10488716;28;20181;-78
2021/06/13 22:07:08;;;;;;;8.43;4.33;;;;;16.30;101862.00;;;;10508350;28;20202;-78
2021/06/13 22:12:10;;;;;;;6.87;4.60;;;;;16.20;101865.00;;;;10464023;28;20200;-78
2021/06/13 22:17:12;;;;;;;10.97;4.57;;;;;16.10;101855.00;;;;10472209;28;20190;-78
2021/06/13 22:22:14;;;;;;;9.57;5.43;;;;;16.00;101872.00;;;;10471705;28;20190;-78
2021/06/13 22:27:16;;;;;;;7.87;5.00;;;;;15.90;101869.00;;;;10508296;28;20210;-78
2021/06/13 22:32:18;;;;;;;6.10;4.83;;;;;15.80;101859.00;;;;10511593;28;20217;-77
2021/06/13 22:37:20;;;;;;;9.57;5.20;;;;;15.70;101853.00;;;;10476656;28;20648;-78
2021/06/13 22:42:22;;;;;;;7.30;5.03;;;;;15.60;101850.00;;;;10455003;28;20190;-77
2021/06/13 22:47:24;;;;;;;9.10;5.67;;;;;15.50;101847.00;;;;10489182;28;20202;-78
2021/06/13 22:52:26;;;;;;;10.40;5.43;;;;;15.50;101851.00;;;;10482515;28;20208;-80
2021/06/13 22:57:28;;;;;;;10.53;5.17;;;;;15.40;101841.00;;;;10493652;28;20198;-80
2021/06/13 23:02:30;;;;;;;6.20;5.10;;;;;15.30;101851.00;;;;10490884;28;20559;-80
2021/06/13 23:07:32;;;;;;;8.57;5.43;;;;;15.20;101837.00;;;;10463949;28;20223;-80
2021/06/13 23:12:34;;;;;;;6.83;5.20;;;;;15.10;101838.00;;;;10472359;28;20216;-80
2021/06/13 23:17:37;;;;;;;7.57;4.70;;;;;15.00;101845.00;;;;10493637;28;20186;-80
2021/06/13 23:22:39;;;;;;;8.10;5.17;;;;;15.00;101830.00;;;;10515148;28;20197;-80
2021/06/13 23:27:44;;;;;;;10.30;5.50;;;;;14.90;101831.00;;;;10503857;28;20281;-80
2021/06/13 23:32:47;;;;;;;8.27;5.10;;;;;14.90;101823.00;;;;10496903;28;20722;-80
2021/06/13 23:37:49;;;;;;;8.17;5.20;;;;;14.80;101819.00;;;;10484210;28;20190;-80
2021/06/13 23:42:53;;;;;;;9.93;5.47;;;;;14.70;101818.00;;;;10527355;28;20256;-80
2021/06/13 23:47:55;;;;;;;7.33;5.13;;;;;14.60;101817.00;;;;10467247;28;20205;-80
2021/06/13 23:52:57;;;;;;;11.47;6.13;;;;;14.50;101820.00;;;;10479403;28;20225;-80
2021/06/13 23:58:00;;;;;;;12.50;6.30;;;;;14.40;101810.00;;;;10485322;28;20328;-80
